sensor_id;sensor_type;location;lat;lon;timestamp;P1;durP1;ratioP1;P2;durP2;ratioP2
4466;SDS011;2246;42.664;23.278;2023-07-29T00:00:42;3.42;;;2.75;;
4466;SDS011;2246;42.664;23.278;2023-07-29T00:03:08;4.57;;;2.50;;
4466;SDS011;2246;42.664;23.278;2023-07-29T00:05:34;6.88;;;2.65;;
4466;SDS011;2246;42.664;23.278;2023-07-29T00:08:00;3.33;;;2.67;;
4466;SDS011;2246;42.664;23.278;2023-07-29T00:10:26;4.65;;;2.22;;
4466;SDS011;2246;42.664;23.278;2023-07-29T00:12:52;5.45;;;2.60;;
4466;SDS011;2246;42.664;23.278;2023-07-29T00:15:18;4.75;;;2.53;;
4466;SDS011;2246;42.664;23.278;2023-07-29T00:17:44;3.42;;;2.30;;
4466;SDS011;2246;42.664;23.278;2023-07-29T00:20:10;4.95;;;2.65;;
4466;SDS011;2246;42.664;23.278;2023-07-29T00:22:37;3.75;;;2.40;;
4466;SDS011;2246;42.664;23.278;2023-07-29T00:25:03;11.52;;;2.60;;
4466;SDS011;2246;42.664;23.278;2023-07-29T00:27:29;4.22;;;2.70;;
4466;SDS011;2246;42.664;23.278;2023-07-29T00:29:55;5.75;;;2.45;;
4466;SDS011;2246;42.664;23.278;2023-07-29T00:32:21;4.80;;;2.33;;
4466;SDS011;2246;42.664;23.278;2023-07-29T00:34:47;6.03;;;2.67;;
4466;SDS011;2246;42.664;23.278;2023-07-29T00:37:13;3.90;;;2.67;;
4466;SDS011;2246;42.664;23.278;2023-07-29T00:39:39;9.95;;;2.40;;
4466;SDS011;2246;42.664;23.278;2023-07-29T00:42:05;4.80;;;2.53;;
4466;SDS011;2246;42.664;23.278;2023-07-29T00:44:31;4.38;;;2.40;;
4466;SDS011;2246;42.664;23.278;2023-07-29T00:46:57;3.35;;;2.83;;
4466;SDS011;2246;42.664;23.278;2023-07-29T00:49:24;4.57;;;2.47;;
4466;SDS011;2246;42.664;23.278;2023-07-29T00:51:50;6.03;;;2.63;;
4466;SDS011;2246;42.664;23.278;2023-07-29T00:54:16;3.80;;;2.60;;
4466;SDS011;2246;42.664;23.278;2023-07-29T00:56:42;3.35;;;2.60;;
4466;SDS011;2246;42.664;23.278;2023-07-29T00:59:08;3.42;;;2.40;;
4466;SDS011;2246;42.664;23.278;2023-07-29T01:01:34;4.18;;;2.70;;
4466;SDS011;2246;42.664;23.278;2023-07-29T01:04:01;3.85;;;2.42;;
4466;SDS011;2246;42.664;23.278;2023-07-29T01:08:59;7.65;;;2.60;;
4466;SDS011;2246;42.664;23.278;2023-07-29T01:14:24;4.53;;;2.83;;
4466;SDS011;2246;42.664;23.278;2023-07-29T01:17:00;5.82;;;2.60;;
4466;SDS011;2246;42.664;23.278;2023-07-29T01:22:11;3.10;;;2.35;;
4466;SDS011;2246;42.664;23.278;2023-07-29T01:24:39;6.47;;;2.97;;
4466;SDS011;2246;42.664;23.278;2023-07-29T01:27:05;9.48;;;3.65;;
4466;SDS011;2246;42.664;23.278;2023-07-29T01:29:31;5.22;;;3.30;;
4466;SDS011;2246;42.664;23.278;2023-07-29T01:31:58;9.57;;;2.95;;
4466;SDS011;2246;42.664;23.278;2023-07-29T01:34:29;9.75;;;4.03;;
4466;SDS011;2246;42.664;23.278;2023-07-29T01:36:57;8.68;;;5.03;;
4466;SDS011;2246;42.664;23.278;2023-07-29T01:39:24;4.38;;;2.78;;
4466;SDS011;2246;42.664;23.278;2023-07-29T01:41:51;4.55;;;2.55;;
4466;SDS011;2246;42.664;23.278;2023-07-29T01:44:17;3.97;;;2.80;;
4466;SDS011;2246;42.664;23.278;2023-07-29T01:46:44;5.20;;;2.95;;
4466;SDS011;2246;42.664;23.278;2023-07-29T01:49:10;5.65;;;2.83;;
4466;SDS011;2246;42.664;23.278;2023-07-29T01:51:36;8.82;;;3.65;;
4466;SDS011;2246;42.664;23.278;2023-07-29T01:54:02;6.20;;;3.08;;
4466;SDS011;2246;42.664;23.278;2023-07-29T01:56:28;6.10;;;3.72;;
4466;SDS011;2246;42.664;23.278;2023-07-29T01:58:54;7.50;;;3.38;;
4466;SDS011;2246;42.664;23.278;2023-07-29T02:01:20;7.10;;;3.45;;
4466;SDS011;2246;42.664;23.278;2023-07-29T02:03:46;9.70;;;4.47;;
4466;SDS011;2246;42.664;23.278;2023-07-29T02:06:13;13.00;;;5.70;;
4466;SDS011;2246;42.664;23.278;2023-07-29T02:08:39;6.90;;;3.33;;
4466;SDS011;2246;42.664;23.278;2023-07-29T02:11:05;11.27;;;5.10;;
4466;SDS011;2246;42.664;23.278;2023-07-29T02:13:31;6.35;;;3.17;;
4466;SDS011;2246;42.664;23.278;2023-07-29T02:15:57;5.05;;;3.03;;
4466;SDS011;2246;42.664;23.278;2023-07-29T02:18:23;10.07;;;4.85;;
4466;SDS011;2246;42.664;23.278;2023-07-29T02:20:49;13.82;;;6.25;;
4466;SDS011;2246;42.664;23.278;2023-07-29T02:23:15;13.95;;;7.28;;
4466;SDS011;2246;42.664;23.278;2023-07-29T02:25:45;12.02;;;6.75;;
4466;SDS011;2246;42.664;23.278;2023-07-29T02:28:11;8.77;;;3.97;;
4466;SDS011;2246;42.664;23.278;2023-07-29T02:30:40;5.38;;;3.33;;
4466;SDS011;2246;42.664;23.278;2023-07-29T02:33:06;5.55;;;3.13;;
4466;SDS011;2246;42.664;23.278;2023-07-29T02:35:33;5.55;;;2.92;;
4466;SDS011;2246;42.664;23.278;2023-07-29T02:37:59;4.78;;;3.22;;
4466;SDS011;2246;42.664;23.278;2023-07-29T02:40:25;5.28;;;3.42;;
4466;SDS011;2246;42.664;23.278;2023-07-29T02:42:52;6.63;;;2.78;;
4466;SDS011;2246;42.664;23.278;2023-07-29T02:45:18;4.85;;;3.05;;
4466;SDS011;2246;42.664;23.278;2023-07-29T02:47:44;13.00;;;3.15;;
4466;SDS011;2246;42.664;23.278;2023-07-29T02:50:10;5.43;;;3.17;;
4466;SDS011;2246;42.664;23.278;2023-07-29T02:52:36;3.97;;;3.15;;
4466;SDS011;2246;42.664;23.278;2023-07-29T02:55:02;5.63;;;3.55;;
4466;SDS011;2246;42.664;23.278;2023-07-29T02:57:28;4.85;;;3.05;;
4466;SDS011;2246;42.664;23.278;2023-07-29T02:59:54;10.05;;;3.50;;
4466;SDS011;2246;42.664;23.278;2023-07-29T03:02:20;7.25;;;3.20;;
4466;SDS011;2246;42.664;23.278;2023-07-29T03:04:47;6.40;;;3.50;;
4466;SDS011;2246;42.664;23.278;2023-07-29T03:07:13;6.25;;;3.90;;
4466;SDS011;2246;42.664;23.278;2023-07-29T03:09:39;6.53;;;3.70;;
4466;SDS011;2246;42.664;23.278;2023-07-29T03:12:07;8.70;;;3.78;;
4466;SDS011;2246;42.664;23.278;2023-07-29T03:14:33;7.53;;;3.67;;
4466;SDS011;2246;42.664;23.278;2023-07-29T03:17:02;7.55;;;3.50;;
4466;SDS011;2246;42.664;23.278;2023-07-29T03:19:29;9.63;;;4.78;;
4466;SDS011;2246;42.664;23.278;2023-07-29T03:21:55;5.20;;;3.33;;
4466;SDS011;2246;42.664;23.278;2023-07-29T03:24:21;7.03;;;3.60;;
4466;SDS011;2246;42.664;23.278;2023-07-29T03:26:47;8.52;;;3.38;;
4466;SDS011;2246;42.664;23.278;2023-07-29T03:29:13;7.68;;;5.25;;
4466;SDS011;2246;42.664;23.278;2023-07-29T03:31:39;6.25;;;3.70;;
4466;SDS011;2246;42.664;23.278;2023-07-29T03:34:05;8.82;;;3.60;;
4466;SDS011;2246;42.664;23.278;2023-07-29T03:36:31;9.02;;;3.50;;
4466;SDS011;2246;42.664;23.278;2023-07-29T03:38:57;11.55;;;3.58;;
4466;SDS011;2246;42.664;23.278;2023-07-29T03:41:25;4.93;;;3.08;;
4466;SDS011;2246;42.664;23.278;2023-07-29T03:43:51;5.68;;;3.50;;
4466;SDS011;2246;42.664;23.278;2023-07-29T03:46:17;7.05;;;3.15;;
4466;SDS011;2246;42.664;23.278;2023-07-29T03:48:46;5.70;;;3.65;;
4466;SDS011;2246;42.664;23.278;2023-07-29T03:51:12;8.82;;;4.00;;
4466;SDS011;2246;42.664;23.278;2023-07-29T03:53:38;10.75;;;4.25;;
4466;SDS011;2246;42.664;23.278;2023-07-29T03:56:04;7.30;;;4.07;;
4466;SDS011;2246;42.664;23.278;2023-07-29T03:58:31;7.53;;;3.83;;
4466;SDS011;2246;42.664;23.278;2023-07-29T04:00:57;7.90;;;3.55;;
4466;SDS011;2246;42.664;23.278;2023-07-29T04:03:23;7.18;;;4.15;;
4466;SDS011;2246;42.664;23.278;2023-07-29T04:05:49;6.22;;;3.85;;
4466;SDS011;2246;42.664;23.278;2023-07-29T04:08:15;10.98;;;4.10;;
4466;SDS011;2246;42.664;23.278;2023-07-29T04:10:41;6.75;;;3.92;;
4466;SDS011;2246;42.664;23.278;2023-07-29T04:13:07;6.05;;;3.90;;
4466;SDS011;2246;42.664;23.278;2023-07-29T04:15:33;7.78;;;4.50;;
4466;SDS011;2246;42.664;23.278;2023-07-29T04:17:59;16.65;;;4.43;;
4466;SDS011;2246;42.664;23.278;2023-07-29T04:20:25;8.45;;;4.00;;
4466;SDS011;2246;42.664;23.278;2023-07-29T04:22:51;6.53;;;4.38;;
4466;SDS011;2246;42.664;23.278;2023-07-29T04:25:18;9.27;;;4.55;;
4466;SDS011;2246;42.664;23.278;2023-07-29T04:27:44;16.20;;;6.70;;
4466;SDS011;2246;42.664;23.278;2023-07-29T04:30:10;10.52;;;4.50;;
4466;SDS011;2246;42.664;23.278;2023-07-29T04:32:36;6.70;;;4.07;;
4466;SDS011;2246;42.664;23.278;2023-07-29T04:35:02;12.23;;;4.68;;
4466;SDS011;2246;42.664;23.278;2023-07-29T04:37:28;11.10;;;4.93;;
4466;SDS011;2246;42.664;23.278;2023-07-29T04:39:54;12.35;;;6.00;;
4466;SDS011;2246;42.664;23.278;2023-07-29T04:42:20;14.88;;;8.55;;
4466;SDS011;2246;42.664;23.278;2023-07-29T04:44:46;13.48;;;8.52;;
4466;SDS011;2246;42.664;23.278;2023-07-29T04:47:12;17.17;;;10.25;;
4466;SDS011;2246;42.664;23.278;2023-07-29T04:49:38;14.80;;;9.23;;
4466;SDS011;2246;42.664;23.278;2023-07-29T04:52:04;14.07;;;8.98;;
4466;SDS011;2246;42.664;23.278;2023-07-29T04:54:31;14.65;;;9.25;;
4466;SDS011;2246;42.664;23.278;2023-07-29T04:56:57;25.27;;;9.63;;
4466;SDS011;2246;42.664;23.278;2023-07-29T04:59:23;12.15;;;6.47;;
4466;SDS011;2246;42.664;23.278;2023-07-29T05:01:49;14.88;;;6.47;;
4466;SDS011;2246;42.664;23.278;2023-07-29T05:04:15;11.93;;;6.38;;
4466;SDS011;2246;42.664;23.278;2023-07-29T05:06:41;9.15;;;5.03;;
4466;SDS011;2246;42.664;23.278;2023-07-29T05:09:13;8.10;;;4.80;;
4466;SDS011;2246;42.664;23.278;2023-07-29T05:11:40;10.25;;;4.53;;
4466;SDS011;2246;42.664;23.278;2023-07-29T05:14:06;10.73;;;4.90;;
4466;SDS011;2246;42.664;23.278;2023-07-29T05:16:33;10.88;;;4.55;;
4466;SDS011;2246;42.664;23.278;2023-07-29T05:18:59;9.02;;;4.35;;
4466;SDS011;2246;42.664;23.278;2023-07-29T05:21:26;12.13;;;4.85;;
4466;SDS011;2246;42.664;23.278;2023-07-29T05:23:52;7.97;;;5.10;;
4466;SDS011;2246;42.664;23.278;2023-07-29T05:26:18;8.73;;;4.30;;
4466;SDS011;2246;42.664;23.278;2023-07-29T05:28:44;6.50;;;4.03;;
4466;SDS011;2246;42.664;23.278;2023-07-29T05:31:10;8.43;;;4.25;;
4466;SDS011;2246;42.664;23.278;2023-07-29T05:33:36;10.30;;;4.65;;
4466;SDS011;2246;42.664;23.278;2023-07-29T05:36:02;9.18;;;4.18;;
4466;SDS011;2246;42.664;23.278;2023-07-29T05:38:28;8.35;;;4.47;;
4466;SDS011;2246;42.664;23.278;2023-07-29T05:40:54;6.18;;;3.92;;
4466;SDS011;2246;42.664;23.278;2023-07-29T05:43:20;12.48;;;4.72;;
4466;SDS011;2246;42.664;23.278;2023-07-29T05:45:46;8.23;;;4.63;;
4466;SDS011;2246;42.664;23.278;2023-07-29T05:48:12;5.63;;;3.88;;
4466;SDS011;2246;42.664;23.278;2023-07-29T05:50:38;7.18;;;4.35;;
4466;SDS011;2246;42.664;23.278;2023-07-29T05:53:04;7.10;;;4.20;;
4466;SDS011;2246;42.664;23.278;2023-07-29T05:55:30;10.30;;;3.67;;
4466;SDS011;2246;42.664;23.278;2023-07-29T05:57:56;9.07;;;3.92;;
4466;SDS011;2246;42.664;23.278;2023-07-29T06:00:22;9.13;;;3.90;;
4466;SDS011;2246;42.664;23.278;2023-07-29T06:02:48;7.25;;;3.63;;
4466;SDS011;2246;42.664;23.278;2023-07-29T06:05:14;12.43;;;3.90;;
4466;SDS011;2246;42.664;23.278;2023-07-29T06:07:40;7.32;;;4.10;;
4466;SDS011;2246;42.664;23.278;2023-07-29T06:10:10;7.18;;;3.78;;
4466;SDS011;2246;42.664;23.278;2023-07-29T06:12:37;7.20;;;3.70;;
4466;SDS011;2246;42.664;23.278;2023-07-29T06:15:03;5.18;;;3.53;;
4466;SDS011;2246;42.664;23.278;2023-07-29T06:17:29;7.50;;;3.65;;
4466;SDS011;2246;42.664;23.278;2023-07-29T06:19:55;8.00;;;3.60;;
4466;SDS011;2246;42.664;23.278;2023-07-29T06:22:21;13.55;;;3.83;;
4466;SDS011;2246;42.664;23.278;2023-07-29T06:24:47;8.85;;;3.80;;
4466;SDS011;2246;42.664;23.278;2023-07-29T06:27:13;6.63;;;3.60;;
4466;SDS011;2246;42.664;23.278;2023-07-29T06:29:39;6.28;;;3.42;;
4466;SDS011;2246;42.664;23.278;2023-07-29T06:32:05;7.00;;;3.83;;
4466;SDS011;2246;42.664;23.278;2023-07-29T06:34:31;6.35;;;3.83;;
4466;SDS011;2246;42.664;23.278;2023-07-29T06:36:57;5.68;;;3.53;;
4466;SDS011;2246;42.664;23.278;2023-07-29T06:39:23;8.77;;;4.18;;
4466;SDS011;2246;42.664;23.278;2023-07-29T06:41:49;5.30;;;3.35;;
4466;SDS011;2246;42.664;23.278;2023-07-29T06:44:15;9.00;;;4.38;;
4466;SDS011;2246;42.664;23.278;2023-07-29T06:46:41;4.75;;;3.45;;
4466;SDS011;2246;42.664;23.278;2023-07-29T06:49:08;7.20;;;3.95;;
4466;SDS011;2246;42.664;23.278;2023-07-29T06:51:34;5.78;;;3.20;;
4466;SDS011;2246;42.664;23.278;2023-07-29T06:54:01;7.75;;;3.38;;
4466;SDS011;2246;42.664;23.278;2023-07-29T06:56:28;4.78;;;3.22;;
4466;SDS011;2246;42.664;23.278;2023-07-29T06:58:54;7.80;;;3.47;;
4466;SDS011;2246;42.664;23.278;2023-07-29T07:01:20;6.18;;;3.30;;
4466;SDS011;2246;42.664;23.278;2023-07-29T07:03:46;6.45;;;3.45;;
4466;SDS011;2246;42.664;23.278;2023-07-29T07:06:12;5.72;;;3.53;;
4466;SDS011;2246;42.664;23.278;2023-07-29T07:08:38;4.82;;;3.05;;
4466;SDS011;2246;42.664;23.278;2023-07-29T07:11:04;4.35;;;2.83;;
4466;SDS011;2246;42.664;23.278;2023-07-29T07:13:30;9.30;;;3.25;;
4466;SDS011;2246;42.664;23.278;2023-07-29T07:15:56;5.25;;;3.33;;
4466;SDS011;2246;42.664;23.278;2023-07-29T07:18:22;5.82;;;3.53;;
4466;SDS011;2246;42.664;23.278;2023-07-29T07:20:49;4.53;;;2.97;;
4466;SDS011;2246;42.664;23.278;2023-07-29T07:23:15;23.55;;;12.40;;
4466;SDS011;2246;42.664;23.278;2023-07-29T07:25:41;13.10;;;4.35;;
4466;SDS011;2246;42.664;23.278;2023-07-29T07:28:07;9.45;;;4.78;;
4466;SDS011;2246;42.664;23.278;2023-07-29T07:30:34;9.43;;;3.78;;
4466;SDS011;2246;42.664;23.278;2023-07-29T07:33:00;6.88;;;3.17;;
4466;SDS011;2246;42.664;23.278;2023-07-29T07:35:26;8.60;;;4.10;;
4466;SDS011;2246;42.664;23.278;2023-07-29T07:37:52;11.32;;;3.78;;
4466;SDS011;2246;42.664;23.278;2023-07-29T07:40:18;8.80;;;4.28;;
4466;SDS011;2246;42.664;23.278;2023-07-29T07:42:44;8.43;;;3.80;;
4466;SDS011;2246;42.664;23.278;2023-07-29T07:45:10;7.85;;;4.05;;
4466;SDS011;2246;42.664;23.278;2023-07-29T07:47:36;12.32;;;4.50;;
4466;SDS011;2246;42.664;23.278;2023-07-29T07:50:02;9.43;;;4.25;;
4466;SDS011;2246;42.664;23.278;2023-07-29T07:52:28;8.35;;;3.78;;
4466;SDS011;2246;42.664;23.278;2023-07-29T07:54:54;8.25;;;4.60;;
4466;SDS011;2246;42.664;23.278;2023-07-29T07:57:21;5.25;;;3.30;;
4466;SDS011;2246;42.664;23.278;2023-07-29T07:59:47;6.07;;;3.47;;
4466;SDS011;2246;42.664;23.278;2023-07-29T08:02:13;10.05;;;3.88;;
4466;SDS011;2246;42.664;23.278;2023-07-29T08:04:40;9.77;;;4.00;;
4466;SDS011;2246;42.664;23.278;2023-07-29T08:07:06;5.57;;;3.65;;
4466;SDS011;2246;42.664;23.278;2023-07-29T08:09:32;7.80;;;3.50;;
4466;SDS011;2246;42.664;23.278;2023-07-29T08:11:58;10.23;;;3.97;;
4466;SDS011;2246;42.664;23.278;2023-07-29T08:14:24;5.18;;;3.47;;
4466;SDS011;2246;42.664;23.278;2023-07-29T08:16:51;10.88;;;4.55;;
4466;SDS011;2246;42.664;23.278;2023-07-29T08:19:17;12.30;;;4.25;;
4466;SDS011;2246;42.664;23.278;2023-07-29T08:21:43;9.25;;;3.78;;
4466;SDS011;2246;42.664;23.278;2023-07-29T08:24:09;4.07;;;3.05;;
4466;SDS011;2246;42.664;23.278;2023-07-29T08:26:35;7.80;;;3.53;;
4466;SDS011;2246;42.664;23.278;2023-07-29T08:29:01;6.15;;;3.70;;
4466;SDS011;2246;42.664;23.278;2023-07-29T08:31:27;7.25;;;3.67;;
4466;SDS011;2246;42.664;23.278;2023-07-29T08:33:53;6.57;;;3.70;;
4466;SDS011;2246;42.664;23.278;2023-07-29T08:36:19;8.25;;;3.50;;
4466;SDS011;2246;42.664;23.278;2023-07-29T08:38:45;6.43;;;3.42;;
4466;SDS011;2246;42.664;23.278;2023-07-29T08:43:38;11.20;;;3.40;;
4466;SDS011;2246;42.664;23.278;2023-07-29T08:46:04;7.22;;;3.38;;
4466;SDS011;2246;42.664;23.278;2023-07-29T08:48:41;4.05;;;2.65;;
4466;SDS011;2246;42.664;23.278;2023-07-29T08:51:08;8.95;;;2.90;;
4466;SDS011;2246;42.664;23.278;2023-07-29T08:53:35;7.82;;;3.47;;
4466;SDS011;2246;42.664;23.278;2023-07-29T08:56:01;6.55;;;2.80;;
4466;SDS011;2246;42.664;23.278;2023-07-29T08:58:27;5.07;;;2.10;;
4466;SDS011;2246;42.664;23.278;2023-07-29T09:00:54;5.55;;;2.50;;
4466;SDS011;2246;42.664;23.278;2023-07-29T09:03:20;6.65;;;2.35;;
4466;SDS011;2246;42.664;23.278;2023-07-29T09:05:47;4.20;;;2.50;;
4466;SDS011;2246;42.664;23.278;2023-07-29T09:08:13;3.88;;;2.00;;
4466;SDS011;2246;42.664;23.278;2023-07-29T09:10:39;3.88;;;2.28;;
4466;SDS011;2246;42.664;23.278;2023-07-29T09:13:05;6.55;;;2.60;;
4466;SDS011;2246;42.664;23.278;2023-07-29T09:15:32;5.55;;;1.60;;
4466;SDS011;2246;42.664;23.278;2023-07-29T09:18:07;8.90;;;2.30;;
4466;SDS011;2246;42.664;23.278;2023-07-29T09:20:34;7.18;;;1.50;;
4466;SDS011;2246;42.664;23.278;2023-07-29T09:23:00;3.00;;;1.70;;
4466;SDS011;2246;42.664;23.278;2023-07-29T09:25:27;3.22;;;1.40;;
4466;SDS011;2246;42.664;23.278;2023-07-29T09:28:07;2.97;;;1.80;;
4466;SDS011;2246;42.664;23.278;2023-07-29T09:30:33;2.97;;;1.70;;
4466;SDS011;2246;42.664;23.278;2023-07-29T09:32:59;3.95;;;1.63;;
4466;SDS011;2246;42.664;23.278;2023-07-29T09:35:26;6.30;;;1.77;;
4466;SDS011;2246;42.664;23.278;2023-07-29T09:37:53;3.67;;;1.67;;
4466;SDS011;2246;42.664;23.278;2023-07-29T09:40:19;4.63;;;1.40;;
4466;SDS011;2246;42.664;23.278;2023-07-29T09:42:52;3.67;;;1.70;;
4466;SDS011;2246;42.664;23.278;2023-07-29T09:45:22;4.50;;;1.70;;
4466;SDS011;2246;42.664;23.278;2023-07-29T09:47:48;4.38;;;1.98;;
4466;SDS011;2246;42.664;23.278;2023-07-29T09:50:15;4.30;;;1.77;;
4466;SDS011;2246;42.664;23.278;2023-07-29T09:52:41;4.00;;;1.58;;
4466;SDS011;2246;42.664;23.278;2023-07-29T09:55:07;4.97;;;1.63;;
4466;SDS011;2246;42.664;23.278;2023-07-29T09:57:33;3.50;;;1.58;;
4466;SDS011;2246;42.664;23.278;2023-07-29T10:00:01;5.63;;;1.65;;
4466;SDS011;2246;42.664;23.278;2023-07-29T10:02:30;3.25;;;1.67;;
4466;SDS011;2246;42.664;23.278;2023-07-29T10:04:56;6.07;;;1.83;;
4466;SDS011;2246;42.664;23.278;2023-07-29T10:07:22;5.07;;;1.67;;
4466;SDS011;2246;42.664;23.278;2023-07-29T10:09:50;3.15;;;1.33;;
4466;SDS011;2246;42.664;23.278;2023-07-29T10:12:17;3.20;;;1.55;;
4466;SDS011;2246;42.664;23.278;2023-07-29T10:14:44;2.97;;;1.43;;
4466;SDS011;2246;42.664;23.278;2023-07-29T10:17:11;2.63;;;1.15;;
4466;SDS011;2246;42.664;23.278;2023-07-29T10:19:37;1.42;;;1.10;;
4466;SDS011;2246;42.664;23.278;2023-07-29T10:22:03;2.53;;;1.15;;
4466;SDS011;2246;42.664;23.278;2023-07-29T10:24:32;6.10;;;1.40;;
4466;SDS011;2246;42.664;23.278;2023-07-29T10:26:58;3.08;;;1.40;;
4466;SDS011;2246;42.664;23.278;2023-07-29T10:29:25;1.65;;;1.30;;
4466;SDS011;2246;42.664;23.278;2023-07-29T10:31:54;3.47;;;1.15;;
4466;SDS011;2246;42.664;23.278;2023-07-29T10:34:20;2.15;;;1.30;;
4466;SDS011;2246;42.664;23.278;2023-07-29T10:39:14;2.03;;;1.30;;
4466;SDS011;2246;42.664;23.278;2023-07-29T10:47:25;1.65;;;1.15;;
4466;SDS011;2246;42.664;23.278;2023-07-29T10:55:00;2.45;;;1.15;;
4466;SDS011;2246;42.664;23.278;2023-07-29T10:57:31;1.60;;;1.30;;
4466;SDS011;2246;42.664;23.278;2023-07-29T10:59:57;3.50;;;1.38;;
4466;SDS011;2246;42.664;23.278;2023-07-29T11:02:30;1.95;;;1.27;;
4466;SDS011;2246;42.664;23.278;2023-07-29T11:04:57;2.65;;;1.00;;
4466;SDS011;2246;42.664;23.278;2023-07-29T11:07:24;2.22;;;1.05;;
4466;SDS011;2246;42.664;23.278;2023-07-29T11:09:54;3.67;;;1.38;;
4466;SDS011;2246;42.664;23.278;2023-07-29T11:12:34;4.60;;;1.67;;
4466;SDS011;2246;42.664;23.278;2023-07-29T11:15:02;3.42;;;1.10;;
4466;SDS011;2246;42.664;23.278;2023-07-29T11:17:29;1.95;;;1.05;;
4466;SDS011;2246;42.664;23.278;2023-07-29T11:22:22;1.75;;;1.10;;
4466;SDS011;2246;42.664;23.278;2023-07-29T11:24:48;2.20;;;1.25;;
4466;SDS011;2246;42.664;23.278;2023-07-29T11:27:14;5.28;;;1.40;;
4466;SDS011;2246;42.664;23.278;2023-07-29T11:29:40;1.92;;;1.30;;
4466;SDS011;2246;42.664;23.278;2023-07-29T11:32:06;1.83;;;1.17;;
4466;SDS011;2246;42.664;23.278;2023-07-29T11:34:32;3.38;;;1.20;;
4466;SDS011;2246;42.664;23.278;2023-07-29T11:36:58;3.97;;;1.35;;
4466;SDS011;2246;42.664;23.278;2023-07-29T11:39:24;2.42;;;1.20;;
4466;SDS011;2246;42.664;23.278;2023-07-29T11:41:50;4.47;;;1.35;;
4466;SDS011;2246;42.664;23.278;2023-07-29T11:44:16;1.30;;;1.20;;
4466;SDS011;2246;42.664;23.278;2023-07-29T11:46:43;1.13;;;0.93;;
4466;SDS011;2246;42.664;23.278;2023-07-29T11:49:09;1.85;;;1.25;;
4466;SDS011;2246;42.664;23.278;2023-07-29T11:51:36;2.17;;;1.13;;
4466;SDS011;2246;42.664;23.278;2023-07-29T11:54:02;2.30;;;1.35;;
4466;SDS011;2246;42.664;23.278;2023-07-29T11:56:28;3.30;;;1.10;;
4466;SDS011;2246;42.664;23.278;2023-07-29T12:01:21;6.45;;;1.27;;
4466;SDS011;2246;42.664;23.278;2023-07-29T12:03:48;2.80;;;1.30;;
4466;SDS011;2246;42.664;23.278;2023-07-29T12:06:14;2.30;;;1.15;;
4466;SDS011;2246;42.664;23.278;2023-07-29T12:08:41;2.60;;;1.17;;
4466;SDS011;2246;42.664;23.278;2023-07-29T12:11:08;3.03;;;1.20;;
4466;SDS011;2246;42.664;23.278;2023-07-29T12:13:36;1.73;;;1.40;;
4466;SDS011;2246;42.664;23.278;2023-07-29T12:16:02;3.13;;;1.15;;
4466;SDS011;2246;42.664;23.278;2023-07-29T12:18:32;2.55;;;1.42;;
4466;SDS011;2246;42.664;23.278;2023-07-29T12:20:58;5.43;;;1.50;;
4466;SDS011;2246;42.664;23.278;2023-07-29T12:23:24;1.75;;;1.40;;
4466;SDS011;2246;42.664;23.278;2023-07-29T12:25:57;3.08;;;1.70;;
4466;SDS011;2246;42.664;23.278;2023-07-29T12:28:24;1.52;;;1.10;;
4466;SDS011;2246;42.664;23.278;2023-07-29T12:30:53;2.17;;;1.30;;
4466;SDS011;2246;42.664;23.278;2023-07-29T12:33:33;1.75;;;1.30;;
4466;SDS011;2246;42.664;23.278;2023-07-29T12:35:59;2.10;;;1.20;;
4466;SDS011;2246;42.664;23.278;2023-07-29T12:38:25;2.85;;;1.48;;
4466;SDS011;2246;42.664;23.278;2023-07-29T12:40:52;1.35;;;1.20;;
4466;SDS011;2246;42.664;23.278;2023-07-29T12:43:18;3.60;;;1.20;;
4466;SDS011;2246;42.664;23.278;2023-07-29T12:45:44;2.25;;;1.20;;
4466;SDS011;2246;42.664;23.278;2023-07-29T12:48:11;1.58;;;1.20;;
4466;SDS011;2246;42.664;23.278;2023-07-29T12:50:37;2.58;;;1.33;;
4466;SDS011;2246;42.664;23.278;2023-07-29T12:53:07;4.43;;;1.52;;
4466;SDS011;2246;42.664;23.278;2023-07-29T12:55:33;2.25;;;1.50;;
4466;SDS011;2246;42.664;23.278;2023-07-29T12:57:59;3.80;;;2.03;;
4466;SDS011;2246;42.664;23.278;2023-07-29T13:00:25;8.07;;;5.95;;
4466;SDS011;2246;42.664;23.278;2023-07-29T13:02:52;5.25;;;2.60;;
4466;SDS011;2246;42.664;23.278;2023-07-29T13:05:18;2.65;;;1.80;;
4466;SDS011;2246;42.664;23.278;2023-07-29T13:07:44;2.17;;;1.60;;
4466;SDS011;2246;42.664;23.278;2023-07-29T13:10:10;1.60;;;1.30;;
4466;SDS011;2246;42.664;23.278;2023-07-29T13:12:36;1.98;;;1.30;;
4466;SDS011;2246;42.664;23.278;2023-07-29T13:15:02;2.13;;;1.20;;
4466;SDS011;2246;42.664;23.278;2023-07-29T13:17:28;3.20;;;1.10;;
4466;SDS011;2246;42.664;23.278;2023-07-29T13:19:54;1.73;;;1.10;;
4466;SDS011;2246;42.664;23.278;2023-07-29T13:22:20;1.48;;;1.20;;
4466;SDS011;2246;42.664;23.278;2023-07-29T13:24:46;5.35;;;2.28;;
4466;SDS011;2246;42.664;23.278;2023-07-29T13:27:13;1.77;;;1.27;;
4466;SDS011;2246;42.664;23.278;2023-07-29T13:29:39;1.83;;;1.35;;
4466;SDS011;2246;42.664;23.278;2023-07-29T13:32:05;1.70;;;1.40;;
4466;SDS011;2246;42.664;23.278;2023-07-29T13:34:31;3.73;;;1.50;;
4466;SDS011;2246;42.664;23.278;2023-07-29T13:36:59;5.70;;;1.40;;
4466;SDS011;2246;42.664;23.278;2023-07-29T13:39:25;1.58;;;1.33;;
4466;SDS011;2246;42.664;23.278;2023-07-29T13:44:18;2.28;;;1.70;;
4466;SDS011;2246;42.664;23.278;2023-07-29T13:46:44;6.50;;;1.38;;
4466;SDS011;2246;42.664;23.278;2023-07-29T13:49:10;4.82;;;1.90;;
4466;SDS011;2246;42.664;23.278;2023-07-29T13:51:36;4.82;;;1.73;;
4466;SDS011;2246;42.664;23.278;2023-07-29T13:54:02;4.43;;;1.92;;
4466;SDS011;2246;42.664;23.278;2023-07-29T13:56:29;3.47;;;2.50;;
4466;SDS011;2246;42.664;23.278;2023-07-29T13:58:55;5.40;;;2.20;;
4466;SDS011;2246;42.664;23.278;2023-07-29T14:01:21;5.63;;;1.90;;
4466;SDS011;2246;42.664;23.278;2023-07-29T14:03:47;5.65;;;1.92;;
4466;SDS011;2246;42.664;23.278;2023-07-29T14:06:12;4.45;;;1.95;;
4466;SDS011;2246;42.664;23.278;2023-07-29T14:08:38;2.65;;;2.00;;
4466;SDS011;2246;42.664;23.278;2023-07-29T14:11:06;4.60;;;2.50;;
4466;SDS011;2246;42.664;23.278;2023-07-29T14:13:32;4.35;;;2.00;;
4466;SDS011;2246;42.664;23.278;2023-07-29T14:16:02;4.55;;;2.15;;
4466;SDS011;2246;42.664;23.278;2023-07-29T14:18:28;3.58;;;2.03;;
4466;SDS011;2246;42.664;23.278;2023-07-29T14:20:54;5.97;;;1.80;;
4466;SDS011;2246;42.664;23.278;2023-07-29T14:23:20;2.95;;;1.83;;
4466;SDS011;2246;42.664;23.278;2023-07-29T14:25:46;3.78;;;1.58;;
4466;SDS011;2246;42.664;23.278;2023-07-29T14:28:13;5.15;;;1.95;;
4466;SDS011;2246;42.664;23.278;2023-07-29T14:30:39;2.95;;;1.48;;
4466;SDS011;2246;42.664;23.278;2023-07-29T14:33:06;3.55;;;1.40;;
4466;SDS011;2246;42.664;23.278;2023-07-29T14:35:32;1.87;;;1.47;;
4466;SDS011;2246;42.664;23.278;2023-07-29T14:37:58;4.32;;;1.40;;
4466;SDS011;2246;42.664;23.278;2023-07-29T14:40:24;4.28;;;1.95;;
4466;SDS011;2246;42.664;23.278;2023-07-29T14:42:50;3.53;;;1.75;;
4466;SDS011;2246;42.664;23.278;2023-07-29T14:45:16;2.55;;;1.60;;
4466;SDS011;2246;42.664;23.278;2023-07-29T14:47:42;3.83;;;1.80;;
4466;SDS011;2246;42.664;23.278;2023-07-29T14:50:08;2.35;;;1.60;;
4466;SDS011;2246;42.664;23.278;2023-07-29T14:52:34;1.75;;;1.48;;
4466;SDS011;2246;42.664;23.278;2023-07-29T14:55:00;2.28;;;1.77;;
4466;SDS011;2246;42.664;23.278;2023-07-29T14:57:26;1.73;;;1.30;;
4466;SDS011;2246;42.664;23.278;2023-07-29T14:59:52;4.05;;;1.67;;
4466;SDS011;2246;42.664;23.278;2023-07-29T15:02:18;2.72;;;1.50;;
4466;SDS011;2246;42.664;23.278;2023-07-29T15:04:44;2.78;;;1.50;;
4466;SDS011;2246;42.664;23.278;2023-07-29T15:07:10;3.97;;;1.40;;
4466;SDS011;2246;42.664;23.278;2023-07-29T15:09:36;2.20;;;1.40;;
4466;SDS011;2246;42.664;23.278;2023-07-29T15:12:03;5.00;;;1.45;;
4466;SDS011;2246;42.664;23.278;2023-07-29T15:14:29;3.08;;;1.70;;
4466;SDS011;2246;42.664;23.278;2023-07-29T15:16:55;2.75;;;1.67;;
4466;SDS011;2246;42.664;23.278;2023-07-29T15:19:21;3.90;;;1.50;;
4466;SDS011;2246;42.664;23.278;2023-07-29T15:21:47;3.92;;;1.60;;
4466;SDS011;2246;42.664;23.278;2023-07-29T15:24:13;4.45;;;1.48;;
4466;SDS011;2246;42.664;23.278;2023-07-29T15:26:40;3.30;;;1.95;;